Ambler Airport

About
Name: Ambler Airport
Identifier:  ABL/PAFM
Serves:  Ambler, Alaska
Owner:  Alaska DOT&PF - Northern Region
Public/Private:  Public
Local Time:  17. Aug 21:09 AKDT
Description: Ambler Airport is a state-owned public-use airport located one nautical mile north of the central business district of Ambler, a city in the Northwest Arctic Borough of the U.S. state of Alaska.
Source: Wikipedia
Location
Runways
Identifier Length (m/ft) Surface
01/19 4,000/4,000 Gravel/Dirt
10/28 2,410/2,410 Gravel/Dirt
Flights per Day
6 flights
Distance: 143km (88mi)
Punctuality
69% (1 flights per day delayed)
Delay Average: 23 minutes
Current Weather
 14 C (Humidity: 44%)
  6kt (11km/h / 6mph) from 10°
  16km (10 mi.)
 
 METAR PAFM 180456Z AUTO 01006KT 10SM CLR 14/02 A3060 RMK AO2 SLP377 T01440022

Current Flights

Departures
Number Departure To Airline
Arrivals
Number Arrival From Airline

Current Delays

Departures
N/A
Arrivals
N/A

Destinations

Top Destinations
Airport Flights
per week
Seats
per week
  Kotzebue (OTZ) 2 - 0 0
  Kobuk (OBU) 0 - 0 0

Airlines & Planes

Top Airlines
Airline Flights
per Day
Seats
per Day
Bering Air 0 -
Top Plane Types
Model Flights Seats
Beech B200 Super King Air 0.3/day - 0
Piper PA-31-350 0.2/day - 0